Time;durP1;ratioP1;P1;durP2;ratioP2;P2;SDS_P1;SDS_P2;PMS_P1;PMS_P2;Temp;Humidity;BMP_temperature;BMP_pressure;BME280_temperature;BME280_humidity;BME280_pressure;Samples;Min_cycle;Max_cycle;Signal;HPM_P1;HPM_P2
2022/02/03 00:00:39;;;;;;;38.47;19.40;;;;;;;;;;2115095;28;20089;-57
2022/02/03 00:01:57;;;;;;;32.75;16.85;;;;;;;;;;2111002;28;20035;-45
2022/02/03 00:03:08;;;;;;;36.85;18.42;;;;;;;;;;2106632;28;20130;-45
2022/02/03 00:04:14;;;;;;;42.40;20.45;;;;;;;;;;2106358;28;20041;-45
2022/02/03 00:05:21;;;;;;;36.45;20.30;;;;;;;;;;2107073;28;20178;-45
2022/02/03 00:06:31;;;;;;;33.13;17.35;;;;;;;;;;2106772;28;20083;-44
2022/02/03 00:07:42;;;;;;;41.58;21.13;;;;;;;;;;2109512;28;20044;-45
2022/02/03 00:08:59;;;;;;;33.65;16.50;;;;;;;;;;2115215;28;20083;-45
2022/02/03 00:11:39;;;;;;;39.85;18.63;;;;;;;;;;2106460;28;20193;-47
2022/02/03 00:16:59;;;;;;;38.70;18.63;;;;;;;;;;2111569;28;20556;-57
2022/02/03 00:22:12;;;;;;;37.75;16.08;;;;;;;;;;2110641;28;20119;-57
2022/02/03 00:23:41;;;;;;;31.67;17.60;;;;;;;;;;2115179;28;20173;-57
2022/02/03 00:24:56;;;;;;;32.08;16.20;;;;;;;;;;2112809;28;20040;-57
2022/02/03 00:25:58;;;;;;;35.97;19.80;;;;;;;;;;2114850;28;20086;-57
2022/02/03 00:27:03;;;;;;;39.55;22.00;;;;;;;;;;2115115;28;20071;-57
2022/02/03 00:28:10;;;;;;;39.25;18.13;;;;;;;;;;2112265;28;20086;-57
2022/02/03 00:29:25;;;;;;;38.55;20.45;;;;;;;;;;2115069;28;20085;-57
2022/02/03 00:30:34;;;;;;;33.38;19.17;;;;;;;;;;2111698;28;20508;-57
2022/02/03 00:31:42;;;;;;;34.00;19.13;;;;;;;;;;2115140;28;20138;-57
2022/02/03 00:33:06;;;;;;;40.78;22.13;;;;;;;;;;2114333;28;20043;-57
2022/02/03 00:34:15;;;;;;;37.50;18.35;;;;;;;;;;2106373;28;20458;-57
2022/02/03 00:37:03;;;;;;;41.50;22.25;;;;;;;;;;2105883;28;20134;-45
2022/02/03 00:38:19;;;;;;;36.17;18.92;;;;;;;;;;2114833;28;20504;-44
2022/02/03 00:48:44;;;;;;;37.70;17.63;;;;;;;;;;2114755;28;20562;-57
2022/02/03 00:49:56;;;;;;;40.72;19.77;;;;;;;;;;2114336;28;20127;-56
2022/02/03 00:50:59;;;;;;;39.33;19.45;;;;;;;;;;2112800;28;20127;-57
2022/02/03 00:52:01;;;;;;;39.03;21.33;;;;;;;;;;2114963;28;20180;-57
2022/02/03 00:53:03;;;;;;;40.70;22.63;;;;;;;;;;2112661;28;20399;-57
2022/02/03 00:54:08;;;;;;;43.10;21.90;;;;;;;;;;2114817;28;20075;-57
2022/02/03 00:55:10;;;;;;;38.20;21.42;;;;;;;;;;2114580;28;20126;-57
2022/02/03 00:56:12;;;;;;;38.08;17.42;;;;;;;;;;2111838;28;20166;-57
2022/02/03 00:57:16;;;;;;;40.83;23.08;;;;;;;;;;2114698;28;20459;-56
2022/02/03 00:58:18;;;;;;;34.45;19.75;;;;;;;;;;2111096;28;20063;-57
2022/02/03 00:59:28;;;;;;;41.45;21.85;;;;;;;;;;2113079;28;20389;-44
2022/02/03 01:00:30;;;;;;;39.80;22.45;;;;;;;;;;2114897;28;20079;-48
2022/02/03 01:01:33;;;;;;;37.13;18.70;;;;;;;;;;2110047;28;20044;-46
2022/02/03 01:02:36;;;;;;;41.42;19.30;;;;;;;;;;2114890;28;20044;-44
2022/02/03 01:03:38;;;;;;;46.20;25.02;;;;;;;;;;2114338;28;20123;-44
2022/02/03 01:04:39;;;;;;;;;;;;;;;;;;2109997;28;20130;-45
2022/02/03 01:05:41;;;;;;;35.10;16.92;;;;;;;;;;2110995;28;19920;-56
2022/02/03 01:06:48;;;;;;;39.30;19.27;;;;;;;;;;2115212;28;20050;-56
2022/02/03 01:07:50;;;;;;;44.50;23.80;;;;;;;;;;2107015;28;20481;-57
2022/02/03 01:08:54;;;;;;;35.97;22.27;;;;;;;;;;2106459;28;20123;-57
2022/02/03 01:10:03;;;;;;;33.97;19.77;;;;;;;;;;2110207;28;20501;-57
2022/02/03 01:11:08;;;;;;;40.67;22.40;;;;;;;;;;2106079;28;20052;-56
2022/02/03 01:12:17;;;;;;;42.38;22.88;;;;;;;;;;2106505;28;20048;-57
2022/02/03 01:13:32;;;;;;;41.80;22.33;;;;;;;;;;2107675;28;20139;-57
2022/02/03 01:14:43;;;;;;;43.65;20.48;;;;;;;;;;2106412;28;20081;-45
2022/02/03 01:15:53;;;;;;;44.25;20.10;;;;;;;;;;2112500;28;20077;-57
2022/02/03 01:17:10;;;;;;;46.00;24.63;;;;;;;;;;2114769;28;20126;-57
2022/02/03 01:18:45;;;;;;;48.00;24.30;;;;;;;;;;2112074;28;20150;-57
2022/02/03 01:20:31;;;;;;;44.97;21.45;;;;;;;;;;2114882;28;20134;-45
2022/02/03 01:21:58;;;;;;;46.20;19.20;;;;;;;;;;2111640;28;20130;-44
2022/02/03 01:34:09;;;;;;;40.80;22.50;;;;;;;;;;2114870;28;20172;-57
2022/02/03 01:36:47;;;;;;;41.92;19.23;;;;;;;;;;2111970;28;20123;-57
2022/02/03 01:43:45;;;;;;;50.63;24.95;;;;;;;;;;2085002;28;20237;-57
2022/02/03 01:44:53;;;;;;;45.78;22.95;;;;;;;;;;2080189;28;20171;-57
2022/02/03 01:45:57;;;;;;;50.88;25.02;;;;;;;;;;2080685;28;20099;-56
2022/02/03 01:47:06;;;;;;;47.35;23.27;;;;;;;;;;2104694;28;20067;-57
2022/02/03 01:48:20;;;;;;;45.10;23.63;;;;;;;;;;2114748;28;20104;-57
2022/02/03 01:51:36;;;;;;;43.33;22.00;;;;;;;;;;2110102;28;20052;-44
2022/02/03 01:52:09;;;;;;;44.58;23.25;;;;;;;;;;2109730;28;20137;-45
2022/02/03 01:53:11;;;;;;;40.80;23.27;;;;;;;;;;2105852;28;20105;-45
2022/02/03 01:54:13;;;;;;;44.75;25.15;;;;;;;;;;2105952;28;20047;-45
2022/02/03 01:55:14;;;;;;;;;;;;;;;;;;2108395;28;20079;-48
2022/02/03 01:56:17;;;;;;;40.88;20.42;;;;;;;;;;2114318;28;19919;-45
2022/02/03 01:57:18;;;;;;;39.78;21.85;;;;;;;;;;2114096;28;20052;-44
2022/02/03 01:58:23;;;;;;;43.50;21.13;;;;;;;;;;2110281;28;20480;-45
2022/02/03 01:59:26;;;;;;;46.00;25.20;;;;;;;;;;2114440;28;20086;-44
2022/02/03 02:00:27;;;;;;;33.65;18.30;;;;;;;;;;2112933;28;20070;-46
2022/02/03 02:01:29;;;;;;;38.78;20.65;;;;;;;;;;2106994;28;20066;-46
2022/02/03 02:02:31;;;;;;;46.75;25.42;;;;;;;;;;2114328;28;20184;-45
2022/02/03 02:03:38;;;;;;;42.17;23.13;;;;;;;;;;2112578;28;20131;-45
2022/02/03 02:04:56;;;;;;;39.63;20.13;;;;;;;;;;2105903;28;20186;-45
2022/02/03 02:06:07;;;;;;;37.38;20.88;;;;;;;;;;2107587;28;20063;-45
2022/02/03 02:07:16;;;;;;;36.88;20.75;;;;;;;;;;2112063;28;20431;-44
2022/02/03 02:08:25;;;;;;;45.53;23.55;;;;;;;;;;2114435;28;20055;-47
2022/02/03 02:09:33;;;;;;;45.60;22.50;;;;;;;;;;2109630;28;20088;-44
2022/02/03 02:10:58;;;;;;;47.15;21.70;;;;;;;;;;2114278;28;20070;-44
2022/02/03 02:12:18;;;;;;;41.42;21.80;;;;;;;;;;2109178;28;20087;-44
2022/02/03 02:13:36;;;;;;;40.42;21.98;;;;;;;;;;2105871;28;20074;-44
2022/02/03 02:15:17;;;;;;;37.88;18.88;;;;;;;;;;2107979;28;20408;-45
2022/02/03 02:16:40;;;;;;;42.60;18.67;;;;;;;;;;2105750;28;20514;-45
2022/02/03 02:18:11;;;;;;;38.30;18.52;;;;;;;;;;2109911;28;20128;-46
2022/02/03 02:19:20;;;;;;;43.13;20.58;;;;;;;;;;2105947;28;20044;-44
2022/02/03 02:37:13;;;;;;;47.25;22.70;;;;;;;;;;2114044;28;20081;-44
2022/02/03 02:38:53;;;;;;;38.17;18.83;;;;;;;;;;2111254;28;20079;-46
2022/02/03 02:40:06;;;;;;;42.58;20.95;;;;;;;;;;2114863;28;20074;-44
2022/02/03 02:42:16;;;;;;;53.05;24.10;;;;;;;;;;2111695;28;20138;-45
2022/02/03 02:43:07;;;;;;;52.53;22.83;;;;;;;;;;2112320;28;20096;-55
2022/02/03 02:44:11;;;;;;;52.40;29.90;;;;;;;;;;2105628;28;20044;-56
2022/02/03 02:45:13;;;;;;;54.80;27.27;;;;;;;;;;2105745;28;20081;-56
2022/02/03 02:46:20;;;;;;;58.08;29.63;;;;;;;;;;2108653;28;20121;-56
2022/02/03 02:47:24;;;;;;;47.08;27.23;;;;;;;;;;2114204;28;20070;-56
2022/02/03 02:48:30;;;;;;;55.22;26.20;;;;;;;;;;2114577;28;20074;-56
2022/02/03 02:49:42;;;;;;;40.40;21.33;;;;;;;;;;2106612;28;20135;-56
2022/02/03 02:50:58;;;;;;;40.88;20.75;;;;;;;;;;2105779;28;20135;-56
2022/02/03 02:52:06;;;;;;;42.97;23.45;;;;;;;;;;2110659;28;20474;-56
2022/02/03 02:53:19;;;;;;;42.25;23.83;;;;;;;;;;2114242;28;20096;-56
2022/02/03 02:54:40;;;;;;;47.13;20.92;;;;;;;;;;2112207;28;20536;-56
2022/02/03 02:55:53;;;;;;;43.40;22.98;;;;;;;;;;2105782;28;20127;-56
2022/02/03 02:57:13;;;;;;;46.35;23.00;;;;;;;;;;2107622;28;20047;-56
2022/02/03 02:58:36;;;;;;;43.92;22.85;;;;;;;;;;2112566;28;20343;-56
2022/02/03 02:59:55;;;;;;;;;;;;;;;;;;2113355;28;20460;-56
2022/02/03 03:02:54;;;;;;;38.08;16.45;;;;;;;;;;2080652;28;20057;-56
2022/02/03 03:04:31;;;;;;;37.22;18.30;;;;;;;;;;2107099;28;20078;-56
2022/02/03 03:29:55;;;;;;;34.05;18.55;;;;;;;;;;2107085;28;20048;-45
2022/02/03 03:31:08;;;;;;;34.85;17.75;;;;;;;;;;2109147;28;20135;-56
2022/02/03 03:32:33;;;;;;;36.75;19.63;;;;;;;;;;2113103;28;20524;-56
2022/02/03 03:33:42;;;;;;;36.22;19.83;;;;;;;;;;2115232;28;20544;-57
2022/02/03 03:34:58;;;;;;;42.60;20.33;;;;;;;;;;2111944;28;20040;-57
2022/02/03 03:36:03;;;;;;;39.45;24.15;;;;;;;;;;2115261;28;20058;-57
2022/02/03 03:37:07;;;;;;;43.72;22.95;;;;;;;;;;2113245;28;20159;-56
2022/02/03 03:38:10;;;;;;;41.92;20.98;;;;;;;;;;2106880;28;20505;-57
2022/02/03 03:39:13;;;;;;;42.42;20.90;;;;;;;;;;2106471;28;20081;-56
2022/02/03 03:40:15;;;;;;;46.13;25.58;;;;;;;;;;2112472;28;20055;-56
2022/02/03 03:41:17;;;;;;;43.50;21.00;;;;;;;;;;2115206;28;20083;-56
2022/02/03 03:42:23;;;;;;;43.90;26.45;;;;;;;;;;2112307;28;20121;-56
2022/02/03 03:43:28;;;;;;;45.22;24.25;;;;;;;;;;2107726;28;20079;-56
2022/02/03 03:44:30;;;;;;;38.00;19.67;;;;;;;;;;2106994;28;20051;-56
2022/02/03 03:45:32;;;;;;;46.13;26.25;;;;;;;;;;2109675;28;20493;-56
2022/02/03 03:46:39;;;;;;;42.25;21.50;;;;;;;;;;2107016;28;20109;-56
2022/02/03 03:47:41;;;;;;;57.42;33.78;;;;;;;;;;2106993;28;20126;-56
2022/02/03 03:48:49;;;;;;;49.55;24.67;;;;;;;;;;2108667;28;20047;-56
2022/02/03 03:49:51;;;;;;;54.13;30.13;;;;;;;;;;2106788;28;20378;-57
2022/02/03 03:50:53;;;;;;;48.63;25.70;;;;;;;;;;2107279;28;20118;-56
2022/02/03 03:52:00;;;;;;;46.45;28.58;;;;;;;;;;2113360;28;20138;-56
2022/02/03 03:53:07;;;;;;;49.38;26.08;;;;;;;;;;2115148;28;20051;-56
2022/02/03 03:54:12;;;;;;;47.95;26.08;;;;;;;;;;2110022;28;20086;-56
2022/02/03 03:55:22;;;;;;;52.10;24.10;;;;;;;;;;2106714;28;20079;-57
2022/02/03 03:56:32;;;;;;;51.78;28.92;;;;;;;;;;2108947;28;20083;-56
2022/02/03 03:57:46;;;;;;;42.15;21.65;;;;;;;;;;2106566;28;20405;-56
2022/02/03 04:00:23;;;;;;;41.88;21.35;;;;;;;;;;2112212;28;20169;-56
2022/02/03 04:29:51;;;;;;;50.78;22.90;;;;;;;;;;2106529;28;20565;-45
2022/02/03 04:32:49;;;;;;;47.00;23.33;;;;;;;;;;2105550;28;20469;-44
2022/02/03 04:34:26;;;;;;;41.47;20.45;;;;;;;;;;2107070;28;20133;-45
2022/02/03 04:36:29;;;;;;;41.53;21.60;;;;;;;;;;2106462;28;20475;-45
2022/02/03 04:37:39;;;;;;;44.75;20.80;;;;;;;;;;2112650;28;20127;-44
2022/02/03 04:41:43;;;;;;;45.55;23.73;;;;;;;;;;2106291;28;20076;-56
2022/02/03 04:46:25;;;;;;;43.70;20.70;;;;;;;;;;2080222;28;20127;-44
2022/02/03 04:55:32;;;;;;;37.33;19.45;;;;;;;;;;2080281;28;20088;-56
2022/02/03 04:57:05;;;;;;;43.83;21.13;;;;;;;;;;2111597;28;20123;-56
2022/02/03 05:03:06;;;;;;;41.30;20.48;;;;;;;;;;2056206;28;20078;-56
2022/02/03 05:04:23;;;;;;;45.95;22.40;;;;;;;;;;2108460;28;20126;-56
2022/02/03 05:05:42;;;;;;;51.08;22.65;;;;;;;;;;2106373;28;20075;-57
2022/02/03 05:07:01;;;;;;;44.28;22.30;;;;;;;;;;2108357;28;20417;-56
2022/02/03 05:08:24;;;;;;;43.88;25.83;;;;;;;;;;2113477;28;20071;-57
2022/02/03 05:09:37;;;;;;;;;;;;;;;;;;2115405;28;20124;-56
2022/02/03 05:10:45;;;;;;;;;;;;;;;;;;2107716;28;19920;-56
2022/02/03 05:12:05;;;;;;;43.30;20.63;;;;;;;;;;2106218;28;19962;-56
2022/02/03 05:13:31;;;;;;;43.75;21.50;;;;;;;;;;2109982;28;20074;-56
2022/02/03 05:15:12;;;;;;;47.22;21.42;;;;;;;;;;2106267;28;20146;-56
2022/02/03 05:18:03;;;;;;;37.63;19.15;;;;;;;;;;2112027;28;20130;-56
2022/02/03 05:19:45;;;;;;;47.28;22.15;;;;;;;;;;2111540;28;20177;-56
2022/02/03 05:21:27;;;;;;;40.40;21.30;;;;;;;;;;2115082;28;20078;-56
2022/02/03 05:23:15;;;;;;;43.80;20.63;;;;;;;;;;2106189;28;20098;-57
2022/02/03 05:24:42;;;;;;;40.75;21.45;;;;;;;;;;2110808;28;20079;-57
2022/02/03 05:26:13;;;;;;;42.33;20.85;;;;;;;;;;2114610;28;20177;-56
2022/02/03 05:33:25;;;;;;;91.05;36.75;;;;;;;;;;2111485;28;20088;-56
2022/02/03 05:42:22;;;;;;;52.65;22.98;;;;;;;;;;2110062;28;20498;-56
2022/02/03 05:43:55;;;;;;;57.45;23.98;;;;;;;;;;2114219;28;20138;-57
2022/02/03 05:45:04;;;;;;;;;;;;;;;;;;2106364;28;20048;-56
2022/02/03 05:46:35;;;;;;;37.55;17.58;;;;;;;;;;2105955;28;19964;-56
2022/02/03 05:49:28;;;;;;;43.78;20.83;;;;;;;;;;2087733;28;20099;-56
2022/02/03 05:50:41;;;;;;;37.60;16.60;;;;;;;;;;2112219;28;20075;-45
2022/02/03 05:52:06;;;;;;;40.65;19.25;;;;;;;;;;2114248;28;20123;-44
2022/02/03 05:55:01;;;;;;;62.33;25.70;;;;;;;;;;2110035;28;20048;-47
2022/02/03 06:02:01;;;;;;;71.28;33.30;;;;;;;;;;2108580;28;20555;-57
2022/02/03 06:03:18;;;;;;;72.00;29.83;;;;;;;;;;2114308;28;20078;-57
2022/02/03 06:04:33;;;;;;;66.60;28.45;;;;;;;;;;2111444;28;20130;-57
2022/02/03 06:05:49;;;;;;;61.28;28.35;;;;;;;;;;2114285;28;20489;-57
2022/02/03 06:07:19;;;;;;;58.22;29.48;;;;;;;;;;2111147;28;20574;-57
2022/02/03 06:08:20;;;;;;;46.42;19.77;;;;;;;;;;2105878;28;20083;-57
2022/02/03 06:09:34;;;;;;;47.97;25.55;;;;;;;;;;2108929;28;20063;-57
2022/02/03 06:13:34;;;;;;;44.65;22.85;;;;;;;;;;2097881;28;20382;-57
2022/02/03 06:14:40;;;;;;;48.13;22.25;;;;;;;;;;2114369;28;20082;-57
2022/02/03 06:16:03;;;;;;;44.40;21.67;;;;;;;;;;2110681;28;20131;-57
2022/02/03 06:17:17;;;;;;;46.42;21.52;;;;;;;;;;2114485;28;20071;-57
2022/02/03 06:22:27;;;;;;;42.22;21.48;;;;;;;;;;2106072;28;20043;-57
2022/02/03 06:23:41;;;;;;;47.17;26.98;;;;;;;;;;2107889;28;20039;-57
2022/02/03 06:24:51;;;;;;;40.45;20.60;;;;;;;;;;2105731;28;20497;-57
2022/02/03 06:27:26;;;;;;;43.28;24.27;;;;;;;;;;2111459;28;20160;-57
2022/02/03 06:28:27;;;;;;;39.63;18.58;;;;;;;;;;2114107;28;20074;-57
2022/02/03 06:29:31;;;;;;;41.07;19.50;;;;;;;;;;2111425;28;20410;-57
2022/02/03 06:30:32;;;;;;;49.20;24.90;;;;;;;;;;2105769;28;20139;-57
2022/02/03 06:31:35;;;;;;;49.97;26.33;;;;;;;;;;2106032;28;20052;-57
2022/02/03 06:32:37;;;;;;;48.40;22.95;;;;;;;;;;2107362;28;20128;-57
2022/02/03 06:33:38;;;;;;;48.13;23.63;;;;;;;;;;2105885;28;20131;-57
2022/02/03 06:34:39;;;;;;;40.13;19.65;;;;;;;;;;2108864;28;20135;-57
2022/02/03 06:35:40;;;;;;;39.55;20.65;;;;;;;;;;2107624;28;20496;-57
2022/02/03 06:36:42;;;;;;;44.65;22.85;;;;;;;;;;2105712;28;20098;-57
2022/02/03 06:37:45;;;;;;;48.33;28.20;;;;;;;;;;2109903;28;20066;-58
2022/02/03 06:38:46;;;;;;;30.35;16.52;;;;;;;;;;2107474;28;20074;-58
2022/02/03 06:39:47;;;;;;;43.73;21.33;;;;;;;;;;2107284;28;20047;-58
2022/02/03 06:40:48;;;;;;;47.55;22.15;;;;;;;;;;2110815;28;20405;-58
2022/02/03 06:41:51;;;;;;;46.08;21.00;;;;;;;;;;2115652;28;20043;-58
2022/02/03 06:42:56;;;;;;;42.75;24.33;;;;;;;;;;2115377;28;20071;-58
2022/02/03 06:43:57;;;;;;;42.03;18.73;;;;;;;;;;2111996;28;20468;-58
2022/02/03 06:45:07;;;;;;;32.53;17.38;;;;;;;;;;2115626;28;20056;-58
2022/02/03 06:46:09;;;;;;;37.58;21.50;;;;;;;;;;2113629;28;20050;-46
2022/02/03 06:47:16;;;;;;;39.75;21.48;;;;;;;;;;2108187;28;20518;-46
2022/02/03 06:48:19;;;;;;;44.90;25.95;;;;;;;;;;2107205;28;20094;-46
2022/02/03 06:49:30;;;;;;;46.80;25.88;;;;;;;;;;2111122;28;20056;-47
2022/02/03 06:50:37;;;;;;;41.15;20.45;;;;;;;;;;2115497;28;20145;-45
2022/02/03 06:51:47;;;;;;;41.83;21.90;;;;;;;;;;2114915;28;20059;-45
2022/02/03 06:52:54;;;;;;;35.15;20.40;;;;;;;;;;2113415;28;20101;-45
2022/02/03 06:54:01;;;;;;;34.67;16.50;;;;;;;;;;2115718;28;20075;-45
2022/02/03 06:55:08;;;;;;;34.20;19.52;;;;;;;;;;2112097;28;20122;-44
2022/02/03 06:56:13;;;;;;;40.00;20.75;;;;;;;;;;2107206;28;20048;-46
2022/02/03 06:57:19;;;;;;;40.65;25.08;;;;;;;;;;2109807;28;20082;-46
2022/02/03 06:58:24;;;;;;;38.42;16.83;;;;;;;;;;2108077;28;20138;-44
2022/02/03 06:59:34;;;;;;;40.85;23.55;;;;;;;;;;2107170;28;20051;-44
2022/02/03 07:00:39;;;;;;;41.10;20.25;;;;;;;;;;2108438;28;20126;-44
2022/02/03 07:01:43;;;;;;;35.40;19.95;;;;;;;;;;2106965;28;20044;-45
2022/02/03 07:02:46;;;;;;;37.95;21.25;;;;;;;;;;2108213;28;20079;-59
2022/02/03 07:03:54;;;;;;;41.22;21.63;;;;;;;;;;2111750;28;20048;-59
2022/02/03 07:04:57;;;;;;;31.15;16.17;;;;;;;;;;2115474;28;20043;-58
2022/02/03 07:05:58;;;;;;;36.13;22.80;;;;;;;;;;2113385;28;20073;-58
2022/02/03 07:07:01;;;;;;;39.30;17.38;;;;;;;;;;2108778;28;20181;-59
2022/02/03 07:08:05;;;;;;;34.30;22.45;;;;;;;;;;2107033;28;20186;-59
2022/02/03 07:09:08;;;;;;;33.80;18.58;;;;;;;;;;2110832;28;20162;-59
2022/02/03 07:10:10;;;;;;;31.60;17.08;;;;;;;;;;2115361;28;20446;-59
2022/02/03 07:11:12;;;;;;;34.05;19.95;;;;;;;;;;2114919;28;20055;-59
2022/02/03 07:12:14;;;;;;;25.25;14.13;;;;;;;;;;2112155;28;20432;-59
2022/02/03 07:13:16;;;;;;;28.88;19.05;;;;;;;;;;2115390;28;20177;-59
2022/02/03 07:14:17;;;;;;;30.05;15.10;;;;;;;;;;2114975;28;20155;-59
2022/02/03 07:15:18;;;;;;;27.63;14.43;;;;;;;;;;2107812;28;20097;-59
2022/02/03 07:16:19;;;;;;;30.67;17.70;;;;;;;;;;2107187;28;20110;-59
2022/02/03 07:17:20;;;;;;;26.17;14.98;;;;;;;;;;2109354;28;20142;-59
2022/02/03 07:18:21;;;;;;;29.48;15.82;;;;;;;;;;2114197;28;20048;-59
2022/02/03 07:19:23;;;;;;;26.02;16.02;;;;;;;;;;2115365;28;20130;-60
2022/02/03 07:20:26;;;;;;;29.52;17.98;;;;;;;;;;2110653;28;20079;-59
2022/02/03 07:21:27;;;;;;;30.25;18.35;;;;;;;;;;2115409;28;20059;-59
2022/02/03 07:22:28;;;;;;;29.60;17.40;;;;;;;;;;2115650;28;20400;-46
2022/02/03 07:23:30;;;;;;;26.80;16.88;;;;;;;;;;2112152;28;20071;-50
2022/02/03 07:24:31;;;;;;;24.65;16.20;;;;;;;;;;2115378;28;20043;-47
2022/02/03 07:25:32;;;;;;;29.02;14.15;;;;;;;;;;2115767;28;20047;-45
2022/02/03 07:26:33;;;;;;;22.35;13.00;;;;;;;;;;2113605;28;20107;-45
2022/02/03 07:27:34;;;;;;;26.77;16.17;;;;;;;;;;2115674;28;20048;-44
2022/02/03 07:28:39;;;;;;;29.30;16.33;;;;;;;;;;2112172;28;20056;-45
2022/02/03 07:29:41;;;;;;;27.63;15.13;;;;;;;;;;2115574;28;20446;-44
2022/02/03 07:30:42;;;;;;;29.15;18.20;;;;;;;;;;2115355;28;20070;-45
2022/02/03 07:31:43;;;;;;;28.42;14.40;;;;;;;;;;2109416;28;20044;-45
2022/02/03 07:32:44;;;;;;;25.27;14.18;;;;;;;;;;2115376;28;20058;-45
2022/02/03 07:33:45;;;;;;;30.70;20.30;;;;;;;;;;2116066;28;20047;-45
2022/02/03 07:34:46;;;;;;;25.77;14.77;;;;;;;;;;2111965;28;20054;-46
2022/02/03 07:35:47;;;;;;;27.90;16.05;;;;;;;;;;2115385;28;20127;-45
2022/02/03 07:36:49;;;;;;;26.33;17.73;;;;;;;;;;2114087;28;20096;-47
2022/02/03 07:37:51;;;;;;;25.98;14.35;;;;;;;;;;2107648;28;20125;-45
2022/02/03 07:38:53;;;;;;;27.70;17.95;;;;;;;;;;2107167;28;20079;-60
2022/02/03 07:39:54;;;;;;;27.98;16.90;;;;;;;;;;2109513;28;20481;-60
2022/02/03 07:41:02;;;;;;;29.20;19.33;;;;;;;;;;2106893;28;20051;-60
2022/02/03 07:42:03;;;;;;;24.85;13.27;;;;;;;;;;2106937;28;20082;-60
2022/02/03 07:43:09;;;;;;;29.27;17.75;;;;;;;;;;2110010;28;20087;-60
2022/02/03 07:44:13;;;;;;;25.25;15.27;;;;;;;;;;2107009;28;20075;-60
2022/02/03 07:45:16;;;;;;;23.35;15.00;;;;;;;;;;2107359;28;20415;-60
2022/02/03 07:46:17;;;;;;;27.45;15.95;;;;;;;;;;2113214;28;20511;-59
2022/02/03 07:47:18;;;;;;;23.85;13.85;;;;;;;;;;2108410;28;20115;-44
2022/02/03 07:48:20;;;;;;;26.20;14.13;;;;;;;;;;2109736;28;20472;-46
2022/02/03 07:49:21;;;;;;;21.77;13.70;;;;;;;;;;2115118;28;20515;-45
2022/02/03 07:50:22;;;;;;;25.75;14.65;;;;;;;;;;2114207;28;20523;-44
2022/02/03 07:51:23;;;;;;;23.48;14.05;;;;;;;;;;2111585;28;20044;-47
2022/02/03 07:52:24;;;;;;;24.73;14.95;;;;;;;;;;2115230;28;20130;-45
2022/02/03 07:53:26;;;;;;;23.02;13.98;;;;;;;;;;2114716;28;20102;-46
2022/02/03 07:54:29;;;;;;;25.42;15.35;;;;;;;;;;2111796;28;20075;-46
2022/02/03 07:55:30;;;;;;;23.45;15.15;;;;;;;;;;2115168;28;20054;-46
2022/02/03 07:56:31;;;;;;;29.10;12.98;;;;;;;;;;2112023;28;20044;-45
2022/02/03 07:57:32;;;;;;;24.65;13.35;;;;;;;;;;2106532;28;20138;-45
2022/02/03 07:58:33;;;;;;;28.10;15.43;;;;;;;;;;2106660;28;20048;-45
2022/02/03 07:59:34;;;;;;;31.40;15.25;;;;;;;;;;2111393;28;20137;-46
2022/02/03 08:00:35;;;;;;;31.48;17.30;;;;;;;;;;2115009;28;20044;-46
2022/02/03 08:01:45;;;;;;;24.42;16.77;;;;;;;;;;2108922;28;20047;-46
2022/02/03 08:02:46;;;;;;;22.60;12.18;;;;;;;;;;2113798;28;20050;-48
2022/02/03 08:03:48;;;;;;;29.50;16.60;;;;;;;;;;2115360;28;20055;-47
2022/02/03 08:04:50;;;;;;;30.58;19.58;;;;;;;;;;2113128;28;20736;-45
2022/02/03 08:05:57;;;;;;;;;;;;;;;;;;2107443;28;20564;-45
2022/02/03 08:06:59;;;;;;;29.55;14.98;;;;;;;;;;2106770;28;19959;-47
2022/02/03 08:08:06;;;;;;;24.45;12.68;;;;;;;;;;2108648;28;20062;-48
2022/02/03 08:09:11;;;;;;;30.58;19.23;;;;;;;;;;2106722;28;20083;-47
2022/02/03 08:10:27;;;;;;;30.95;17.65;;;;;;;;;;2108329;28;20079;-48
2022/02/03 08:11:34;;;;;;;27.27;14.60;;;;;;;;;;2115027;28;20062;-47
2022/02/03 08:12:36;;;;;;;31.23;19.02;;;;;;;;;;2115857;28;20563;-47
2022/02/03 08:13:47;;;;;;;29.50;17.52;;;;;;;;;;2111486;28;20131;-47
2022/02/03 08:14:50;;;;;;;34.53;22.77;;;;;;;;;;2115270;28;20143;-48
2022/02/03 08:15:59;;;;;;;29.83;17.65;;;;;;;;;;2112726;28;20081;-46
2022/02/03 08:17:04;;;;;;;34.42;20.88;;;;;;;;;;2106598;28;20040;-48
2022/02/03 08:18:09;;;;;;;27.25;15.02;;;;;;;;;;2106509;28;20152;-46
2022/02/03 08:19:16;;;;;;;32.75;20.17;;;;;;;;;;2110301;28;20051;-50
2022/02/03 08:20:20;;;;;;;29.95;17.55;;;;;;;;;;2115002;28;20472;-47
2022/02/03 08:21:22;;;;;;;31.40;19.52;;;;;;;;;;2113481;28;20126;-46
2022/02/03 08:22:27;;;;;;;;;;;;;;;;;;2113174;28;20075;-49
2022/02/03 08:23:55;;;;;;;24.85;13.65;;;;;;;;;;2115395;28;19967;-48
2022/02/03 08:25:04;;;;;;;32.13;15.32;;;;;;;;;;2112496;28;20087;-50
2022/02/03 08:26:13;;;;;;;30.42;16.98;;;;;;;;;;2114988;28;20134;-50
2022/02/03 08:28:44;;;;;;;27.63;14.48;;;;;;;;;;2106842;28;20493;-47
2022/02/03 08:30:07;;;;;;;24.02;14.05;;;;;;;;;;2109798;28;20139;-45
2022/02/03 08:31:20;;;;;;;25.83;15.35;;;;;;;;;;2115483;28;20043;-45
2022/02/03 08:32:22;;;;;;;21.63;12.18;;;;;;;;;;2113646;28;20519;-46
2022/02/03 08:33:23;;;;;;;23.83;14.30;;;;;;;;;;2114633;28;20532;-60
2022/02/03 08:34:34;;;;;;;23.88;13.60;;;;;;;;;;2114878;28;20044;-60
2022/02/03 08:35:39;;;;;;;19.23;11.55;;;;;;;;;;2109494;28;20076;-60
2022/02/03 08:36:41;;;;;;;18.75;12.82;;;;;;;;;;2114902;28;20147;-60
2022/02/03 08:37:45;;;;;;;19.85;10.38;;;;;;;;;;2114599;28;20056;-60
2022/02/03 08:38:47;;;;;;;18.67;13.40;;;;;;;;;;2107309;28;20314;-60
2022/02/03 08:39:53;;;;;;;18.17;11.05;;;;;;;;;;2106610;28;20090;-60
2022/02/03 08:41:01;;;;;;;15.70;11.13;;;;;;;;;;2110475;28;20105;-59
2022/02/03 08:42:04;;;;;;;15.23;9.70;;;;;;;;;;2115291;28;20050;-46
2022/02/03 08:43:05;;;;;;;14.90;9.93;;;;;;;;;;2111333;28;20476;-50
2022/02/03 08:44:06;;;;;;;14.73;8.77;;;;;;;;;;2112256;28;20047;-59
2022/02/03 08:45:07;;;;;;;14.00;9.90;;;;;;;;;;2114928;28;20055;-59
2022/02/03 08:46:10;;;;;;;15.15;10.27;;;;;;;;;;2115471;28;20135;-59
2022/02/03 08:47:11;;;;;;;13.88;10.13;;;;;;;;;;2112536;28;20043;-60
2022/02/03 08:48:13;;;;;;;12.83;7.83;;;;;;;;;;2115110;28;20507;-47
2022/02/03 08:49:16;;;;;;;12.70;9.90;;;;;;;;;;2113092;28;20506;-49
2022/02/03 08:50:17;;;;;;;11.88;7.45;;;;;;;;;;2113637;28;20184;-50
2022/02/03 08:51:19;;;;;;;12.20;8.57;;;;;;;;;;2114879;28;20051;-49
2022/02/03 08:52:23;;;;;;;12.70;8.68;;;;;;;;;;2110998;28;20178;-48
2022/02/03 08:53:28;;;;;;;12.00;7.85;;;;;;;;;;2106381;28;20481;-49
2022/02/03 08:54:33;;;;;;;13.77;9.40;;;;;;;;;;2107533;28;20086;-60
2022/02/03 08:55:43;;;;;;;11.43;7.50;;;;;;;;;;2111231;28;20078;-47
2022/02/03 08:56:50;;;;;;;11.18;8.18;;;;;;;;;;2115005;28;20074;-46
2022/02/03 08:58:25;;;;;;;15.43;8.80;;;;;;;;;;2112642;28;20127;-47
2022/02/03 09:28:35;;;;;;;13.82;8.90;;;;;;;;;;2103816;28;20101;-62
2022/02/03 09:36:47;;;;;;;19.20;9.52;;;;;;;;;;2088621;28;20569;-62
2022/02/03 09:38:18;;;;;;;13.60;8.73;;;;;;;;;;2111723;28;20059;-61
2022/02/03 09:39:26;;;;;;;13.23;8.35;;;;;;;;;;2114270;28;20070;-61
2022/02/03 09:40:50;;;;;;;16.63;9.52;;;;;;;;;;2111390;28;20135;-61
2022/02/03 09:50:00;;;;;;;17.40;9.70;;;;;;;;;;2114519;28;20071;-61
2022/02/03 09:50:35;;;;;;;14.50;8.93;;;;;;;;;;2114595;28;20066;-59
2022/02/03 09:52:04;;;;;;;14.13;9.07;;;;;;;;;;2111457;28;20522;-59
2022/02/03 09:53:27;;;;;;;15.57;9.80;;;;;;;;;;2105953;28;20170;-46
2022/02/03 09:54:50;;;;;;;16.30;9.18;;;;;;;;;;2109998;28;20128;-47
2022/02/03 09:56:15;;;;;;;15.43;9.68;;;;;;;;;;2106021;28;20139;-47
2022/02/03 09:57:34;;;;;;;17.13;9.85;;;;;;;;;;2108178;28;20079;-46
2022/02/03 09:58:40;;;;;;;13.75;8.85;;;;;;;;;;2114616;28;20522;-47
2022/02/03 09:59:58;;;;;;;14.85;10.52;;;;;;;;;;2113047;28;20053;-46
2022/02/03 10:01:07;;;;;;;13.95;8.90;;;;;;;;;;2105732;28;20131;-46
2022/02/03 10:02:12;;;;;;;14.75;10.43;;;;;;;;;;2106183;28;20082;-58
2022/02/03 10:03:16;;;;;;;12.63;8.20;;;;;;;;;;2106467;28;20051;-59
2022/02/03 10:04:35;;;;;;;15.27;10.90;;;;;;;;;;2106003;28;20044;-58
2022/02/03 10:05:39;;;;;;;14.75;9.77;;;;;;;;;;2108720;28;20048;-46
2022/02/03 10:06:50;;;;;;;12.13;7.20;;;;;;;;;;2114147;28;20436;-46
2022/02/03 10:07:51;;;;;;;17.83;10.75;;;;;;;;;;2114275;28;20051;-48
2022/02/03 10:09:13;;;;;;;17.27;10.88;;;;;;;;;;2112431;28;20040;-49
2022/02/03 10:10:13;;;;;;;17.23;9.98;;;;;;;;;;2114501;28;20138;-58
2022/02/03 10:11:15;;;;;;;14.70;9.43;;;;;;;;;;2111528;28;20048;-58
2022/02/03 10:12:17;;;;;;;17.20;10.93;;;;;;;;;;2113093;28;20516;-58
2022/02/03 10:13:19;;;;;;;14.90;8.65;;;;;;;;;;2114342;28;20498;-61
2022/02/03 10:14:30;;;;;;;16.65;10.77;;;;;;;;;;2111474;28;20130;-45
2022/02/03 10:15:32;;;;;;;12.63;8.30;;;;;;;;;;2114311;28;20047;-46
2022/02/03 10:16:34;;;;;;;21.85;8.93;;;;;;;;;;2114384;28;20073;-46